Time;durP1;ratioP1;P1;durP2;ratioP2;P2;SDS_P1;SDS_P2;PMS_P1;PMS_P2;Temp;Humidity;BMP_temperature;BMP_pressure;BME280_temperature;BME280_humidity;BME280_pressure;Samples;Min_cycle;Max_cycle;Signal;HPM_P1;HPM_P2
2023/07/15 07:23:36;;;;;;;962.33;870.08;;;;;;;26.73;49.52;96077.25;2093812;27;20560;-60
2023/07/15 07:25:50;;;;;;;1132.32;999.90;;;;;;;27.02;49.67;96075.59;2086831;28;20557;-60
2023/07/15 07:26:51;;;;;;;1019.33;924.15;;;;;;;27.17;49.47;96072.91;2087009;28;20196;-60
2023/07/15 07:27:53;;;;;;;1159.47;999.90;;;;;;;27.32;49.08;96072.88;2087185;28;20197;-60
2023/07/15 07:28:54;;;;;;;1081.90;974.20;;;;;;;27.31;48.90;96089.16;2087133;28;20255;-60
2023/07/15 07:29:59;;;;;;;1026.68;932.85;;;;;;;27.49;48.55;96075.38;2087163;28;20279;-60
2023/07/15 07:31:00;;;;;;;1024.50;933.75;;;;;;;27.61;48.32;96078.41;2086858;28;20282;-60
2023/07/15 07:32:03;;;;;;;1065.57;966.75;;;;;;;27.53;48.96;96074.81;2087136;28;20201;-60
2023/07/15 07:33:04;;;;;;;1152.70;999.90;;;;;;;27.33;48.51;96066.50;2086696;28;20699;-60
2023/07/15 07:34:06;;;;;;;1353.72;928.28;;;;;;;27.28;48.67;96068.91;2084064;28;20270;-61
2023/07/15 07:35:08;;;;;;;1046.85;944.15;;;;;;;27.41;48.60;96070.13;2087145;28;20235;-60
2023/07/15 07:36:09;;;;;;;2250.00;999.90;;;;;;;27.77;47.60;96074.63;2086928;28;20224;-60
2023/07/15 07:37:11;;;;;;;1057.20;948.90;;;;;;;27.91;47.39;96070.22;2087191;28;20247;-60
2023/07/15 07:38:13;;;;;;;1087.95;883.13;;;;;;;27.81;47.60;96073.25;2087331;28;20197;-60
2023/07/15 07:39:15;;;;;;;1177.00;974.47;;;;;;;27.87;47.12;96067.09;2087435;28;20597;-60
2023/07/15 07:40:16;;;;;;;1093.35;977.67;;;;;;;27.88;47.35;96065.25;2088620;28;20328;-60
2023/07/15 07:41:18;;;;;;;971.72;870.75;;;;;;;27.98;47.93;96074.63;2089201;28;20216;-60
2023/07/15 07:42:19;;;;;;;988.40;891.75;;;;;;;27.93;47.40;96078.94;2087330;28;20220;-60
2023/07/15 07:43:21;;;;;;;924.67;833.40;;;;;;;28.15;47.07;96077.94;2087171;28;20232;-60
2023/07/15 07:44:22;;;;;;;1021.08;914.35;;;;;;;28.32;47.39;96070.41;2086298;28;20201;-60
2023/07/15 07:45:24;;;;;;;1426.00;795.22;;;;;;;28.33;47.03;96079.31;2087048;28;20355;-60
2023/07/15 07:46:25;;;;;;;772.45;699.28;;;;;;;28.59;46.51;96077.84;2086772;28;20229;-61
2023/07/15 07:47:27;;;;;;;2250.00;999.90;;;;;;;28.65;46.10;96082.44;2087311;28;20204;-60
2023/07/15 07:48:29;;;;;;;2250.00;999.90;;;;;;;28.75;46.21;96069.53;2086484;28;20560;-61
2023/07/15 07:49:30;;;;;;;2250.00;999.90;;;;;;;28.73;46.01;96074.25;2084888;28;20232;-61
2023/07/15 07:50:36;;;;;;;2250.00;999.90;;;;;;;28.75;45.58;96080.25;2086599;28;20286;-60
2023/07/15 07:51:37;;;;;;;2250.00;999.90;;;;;;;28.84;45.41;96076.38;2088511;28;20228;-61
2023/07/15 07:52:39;;;;;;;2250.00;999.90;;;;;;;28.65;45.43;96082.44;2089046;28;20199;-61
2023/07/15 07:53:40;;;;;;;2250.00;999.90;;;;;;;28.46;45.50;96074.03;2087127;28;20200;-60
2023/07/15 07:54:42;;;;;;;2250.00;999.90;;;;;;;28.22;46.67;96075.28;2086164;28;20820;-60
2023/07/15 07:55:43;;;;;;;2250.00;999.90;;;;;;;28.29;46.00;96075.34;2086549;28;20251;-60
2023/07/15 07:56:47;;;;;;;2250.00;999.90;;;;;;;28.32;46.36;96077.66;2087010;28;20202;-60
2023/07/15 07:57:48;;;;;;;2250.00;999.90;;;;;;;28.27;45.90;96077.41;2087211;28;20569;-60
2023/07/15 07:58:55;;;;;;;2250.00;999.90;;;;;;;28.08;45.55;96079.72;2086975;28;20197;-60
2023/07/15 07:59:57;;;;;;;2250.00;999.90;;;;;;;28.09;46.10;96073.34;2086741;28;20236;-60
2023/07/15 08:00:58;;;;;;;2250.00;999.90;;;;;;;28.09;46.09;96069.84;2085082;28;20217;-60
2023/07/15 08:02:00;;;;;;;2250.00;999.90;;;;;;;28.07;46.38;96070.00;2086904;28;20193;-60
2023/07/15 08:03:02;;;;;;;2250.00;999.90;;;;;;;28.15;45.84;96077.94;2086458;28;20844;-60
2023/07/15 08:04:04;;;;;;;2250.00;999.90;;;;;;;28.07;46.03;96072.69;2086386;28;20205;-60
2023/07/15 08:05:06;;;;;;;2250.00;999.90;;;;;;;27.85;46.55;96080.69;2086869;28;20284;-60
2023/07/15 08:06:08;;;;;;;2250.00;999.90;;;;;;;27.84;46.21;96081.72;2086513;28;20286;-60
2023/07/15 08:07:10;;;;;;;2250.00;999.90;;;;;;;27.93;46.45;96079.75;2087082;28;20549;-60
2023/07/15 08:08:12;;;;;;;2250.00;999.90;;;;;;;28.10;45.92;96075.00;2086990;28;20294;-60
2023/07/15 08:09:14;;;;;;;2250.00;999.90;;;;;;;28.01;46.13;96076.94;2086911;28;20216;-61
2023/07/15 08:10:16;;;;;;;2250.00;999.90;;;;;;;27.86;46.21;96079.69;2086932;28;20228;-61
2023/07/15 08:11:17;;;;;;;2250.00;999.90;;;;;;;28.05;45.56;96072.06;2086523;28;20237;-60
2023/07/15 08:12:18;;;;;;;2250.00;999.90;;;;;;;28.24;45.52;96081.31;2087106;28;20625;-60
2023/07/15 08:13:20;;;;;;;2250.00;999.90;;;;;;;28.56;45.43;96078.25;2087096;28;20205;-60
2023/07/15 08:14:21;;;;;;;2250.00;999.90;;;;;;;28.43;44.69;96082.50;2087099;28;20196;-61
2023/07/15 08:15:23;;;;;;;2250.00;999.90;;;;;;;28.24;45.31;96080.47;2087017;28;20223;-60
2023/07/15 08:16:32;;;;;;;2250.00;999.90;;;;;;;28.28;44.98;96081.75;2086508;28;20266;-61
2023/07/15 08:17:33;;;;;;;2250.00;999.90;;;;;;;28.18;45.34;96079.41;2086529;28;20201;-60
2023/07/15 08:18:35;;;;;;;2250.00;999.90;;;;;;;28.22;45.69;96087.91;2086340;28;20197;-61
2023/07/15 08:19:36;;;;;;;2250.00;999.90;;;;;;;28.13;45.79;96088.03;2086323;28;20258;-60
2023/07/15 08:20:41;;;;;;;2250.00;999.90;;;;;;;28.07;45.75;96080.72;2085891;28;20327;-59
2023/07/15 08:21:42;;;;;;;2250.00;999.90;;;;;;;28.15;45.69;96083.31;2086833;28;20548;-60
2023/07/15 08:22:44;;;;;;;2250.00;999.90;;;;;;;27.92;45.93;96086.16;2086776;28;20213;-59
2023/07/15 08:23:45;;;;;;;2250.00;999.90;;;;;;;28.06;45.57;96084.47;2087038;28;20788;-60
2023/07/15 08:24:47;;;;;;;2250.00;999.90;;;;;;;28.43;45.07;96095.06;2086783;28;20631;-60
2023/07/15 08:25:48;;;;;;;2250.00;999.90;;;;;;;28.78;45.01;96090.59;2086107;28;20775;-60
2023/07/15 08:26:50;;;;;;;2250.00;999.90;;;;;;;28.89;44.40;96088.41;2086871;28;20211;-60
2023/07/15 08:27:51;;;;;;;2250.00;999.90;;;;;;;28.69;44.92;96093.66;2086584;28;20193;-60
2023/07/15 08:28:55;;;;;;;2250.00;999.90;;;;;;;28.63;45.02;96093.38;2085640;28;20205;-60
2023/07/15 08:29:56;;;;;;;2250.00;999.90;;;;;;;28.68;45.78;96095.50;2086830;28;20208;-60
2023/07/15 08:30:58;;;;;;;2250.00;999.90;;;;;;;28.63;45.35;96098.75;2086277;28;20228;-61
2023/07/15 08:31:59;;;;;;;2266.67;999.90;;;;;;;28.42;45.27;96098.81;2086652;28;20193;-60
2023/07/15 08:33:05;;;;;;;2266.67;999.90;;;;;;;28.44;45.29;96096.75;2086453;28;20430;-60
2023/07/15 08:34:06;;;;;;;2250.00;999.90;;;;;;;28.33;45.42;96098.13;2086809;28;20517;-60
2023/07/15 08:35:08;;;;;;;2266.67;999.90;;;;;;;28.18;45.19;96092.81;2086871;28;20219;-60
2023/07/15 08:36:10;;;;;;;2250.00;999.90;;;;;;;28.15;45.38;96093.19;2086285;28;20469;-60
2023/07/15 08:37:11;;;;;;;2250.00;999.90;;;;;;;28.19;45.60;96095.31;2080484;28;20194;-60
2023/07/15 08:38:13;;;;;;;2266.67;999.90;;;;;;;28.01;45.82;96079.63;2081366;28;20209;-60
2023/07/15 08:39:14;;;;;;;2250.00;999.90;;;;;;;28.02;45.57;96091.19;2081289;28;20453;-59
2023/07/15 08:40:18;;;;;;;2250.00;999.90;;;;;;;28.16;46.05;96093.00;2081413;28;20217;-59
2023/07/15 08:41:23;;;;;;;2250.00;999.90;;;;;;;28.30;45.93;96095.78;2080040;28;20302;-60
2023/07/15 08:42:25;;;;;;;2266.67;999.90;;;;;;;28.31;46.34;96100.16;2080256;28;20236;-59
2023/07/15 08:43:29;;;;;;;2250.00;999.90;;;;;;;28.27;45.87;96088.16;2079744;28;20427;-60
2023/07/15 08:44:31;;;;;;;2250.00;999.90;;;;;;;28.33;46.44;96096.25;2081071;28;20204;-59
2023/07/15 08:45:35;;;;;;;2250.00;999.90;;;;;;;28.47;46.14;96094.50;2081230;28;20548;-60
2023/07/15 08:46:37;;;;;;;2250.00;999.90;;;;;;;28.49;45.51;96094.28;2080383;28;20209;-60
2023/07/15 08:47:43;;;;;;;2266.67;999.90;;;;;;;28.62;45.44;96088.19;2080280;28;20197;-60
2023/07/15 08:48:45;;;;;;;2250.00;999.90;;;;;;;28.34;45.53;96089.84;2081108;28;20431;-60
2023/07/15 08:49:53;;;;;;;2250.00;999.90;;;;;;;28.54;46.34;96091.84;2080814;28;20194;-60
2023/07/15 08:50:56;;;;;;;2250.00;999.90;;;;;;;28.55;44.57;96084.66;2080554;28;20226;-59
2023/07/15 08:51:58;;;;;;;2250.00;999.90;;;;;;;28.68;45.73;96087.44;2081097;28;20189;-60
2023/07/15 08:53:03;;;;;;;2250.00;999.90;;;;;;;29.03;45.30;96074.03;2081168;28;20193;-60
2023/07/15 08:54:06;;;;;;;2250.00;999.90;;;;;;;28.71;45.84;96087.06;2081162;28;20198;-60
2023/07/15 08:55:08;;;;;;;2266.67;999.90;;;;;;;28.67;46.25;96081.25;2080832;28;20190;-60
2023/07/15 08:56:12;;;;;;;2250.00;999.90;;;;;;;28.81;45.67;96066.06;2079882;28;20482;-60
2023/07/15 08:57:17;;;;;;;2250.00;999.90;;;;;;;28.88;46.26;96071.47;2080894;28;20709;-59
2023/07/15 08:58:18;;;;;;;2266.67;999.90;;;;;;;28.99;45.65;96072.78;2080737;28;20355;-60
2023/07/15 08:59:20;;;;;;;2250.00;999.90;;;;;;;29.38;45.24;96073.16;2081083;28;20423;-60
2023/07/15 09:00:22;;;;;;;2266.67;999.90;;;;;;;29.57;45.35;96076.94;2080904;28;20264;-60
2023/07/15 09:01:24;;;;;;;2266.67;999.90;;;;;;;29.89;44.12;96072.72;2080350;28;20561;-60
2023/07/15 09:02:26;;;;;;;2266.67;999.90;;;;;;;30.36;43.79;96075.47;2080173;28;20455;-60
2023/07/15 09:03:28;;;;;;;2266.67;999.90;;;;;;;30.31;42.50;96072.56;2081198;28;20573;-60
2023/07/15 09:04:29;;;;;;;2266.67;999.90;;;;;;;30.36;42.54;96075.47;2080858;28;20435;-61
2023/07/15 09:05:31;;;;;;;2266.67;999.90;;;;;;;30.41;43.83;96074.81;2080662;28;20517;-61
2023/07/15 09:06:33;;;;;;;2266.67;999.90;;;;;;;30.21;43.77;96075.66;2080550;28;20524;-61
2023/07/15 09:07:49;;;;;;;2266.67;999.90;;;;;;;29.99;43.76;96082.25;2080641;28;20439;-61
2023/07/15 09:08:51;;;;;;;2266.67;999.90;;;;;;;30.13;44.16;96084.75;2079993;28;20564;-61
2023/07/15 09:09:52;;;;;;;2266.67;999.90;;;;;;;30.25;44.22;96073.38;2081027;28;20427;-61
2023/07/15 09:10:56;;;;;;;2266.67;999.90;;;;;;;30.61;43.30;96082.91;2080573;28;20431;-61
2023/07/15 09:12:06;;;;;;;2266.67;999.90;;;;;;;30.54;43.70;96080.25;2080810;28;20941;-60
2023/07/15 09:13:08;;;;;;;2266.67;999.90;;;;;;;30.42;43.41;96074.63;2079004;28;20468;-60
2023/07/15 09:14:16;;;;;;;2266.67;999.90;;;;;;;30.28;43.45;96078.34;2080888;28;20878;-61
2023/07/15 09:15:18;;;;;;;2266.67;999.90;;;;;;;30.49;43.27;96079.19;2080834;28;20431;-60
2023/07/15 09:16:20;;;;;;;2266.67;999.90;;;;;;;30.33;44.25;96067.78;2080473;28;20520;-61
2023/07/15 09:17:23;;;;;;;2266.67;999.90;;;;;;;30.20;43.49;96073.19;2079791;28;20790;-61
2023/07/15 09:18:27;;;;;;;1737.17;914.23;;;;;;;30.66;41.82;96066.94;2084274;28;20431;-61
2023/07/15 09:19:32;;;;;;;2266.67;999.90;;;;;;;30.76;41.71;96056.56;2075551;28;20469;-61
2023/07/15 09:20:34;;;;;;;1670.37;851.30;;;;;;;30.94;41.64;96065.84;2079133;28;20431;-61
2023/07/15 09:21:35;;;;;;;2266.67;999.90;;;;;;;31.04;42.11;96065.44;2087909;28;20454;-61
2023/07/15 09:22:36;;;;;;;682.23;620.20;;;;;;;31.24;41.28;96058.13;2080925;28;20506;-61
2023/07/15 09:23:40;;;;;;;2266.67;999.90;;;;;;;31.51;41.17;96070.66;2080951;28;20949;-61
2023/07/15 09:24:42;;;;;;;2266.67;999.90;;;;;;;31.68;41.82;96060.22;2080838;28;20461;-61
2023/07/15 09:25:53;;;;;;;798.60;730.57;;;;;;;31.02;41.06;96065.66;2080227;28;20540;-61
2023/07/15 09:26:55;;;;;;;2266.67;999.90;;;;;;;31.14;40.50;96063.13;2080459;28;20419;-61
2023/07/15 09:27:57;;;;;;;2266.67;999.90;;;;;;;31.41;40.21;96066.56;2080936;28;20471;-61
2023/07/15 09:28:59;;;;;;;734.87;672.57;;;;;;;31.99;40.45;96061.28;2079434;28;20518;-61
2023/07/15 09:30:01;;;;;;;701.83;640.97;;;;;;;32.20;40.29;96065.50;2080739;28;20584;-61
2023/07/15 09:31:03;;;;;;;2266.67;999.90;;;;;;;32.05;39.46;96072.03;2080529;28;20459;-61
2023/07/15 09:32:08;;;;;;;1717.83;894.50;;;;;;;32.14;40.84;96069.06;2080779;28;20426;-61
2023/07/15 09:33:38;;;;;;;749.43;686.27;;;;;;;32.08;40.13;96063.47;2080816;28;20510;-59
2023/07/15 09:34:42;;;;;;;997.30;887.60;;;;;;;31.71;40.08;96065.19;2079517;28;20430;-60
2023/07/15 09:35:44;;;;;;;1827.03;990.70;;;;;;;31.56;40.08;96065.44;2080406;28;20750;-62
2023/07/15 09:36:46;;;;;;;1146.70;999.90;;;;;;;31.59;39.83;96062.31;2080749;28;20411;-61
2023/07/15 09:37:48;;;;;;;1075.67;979.90;;;;;;;31.82;38.13;96064.50;2080888;28;20445;-61
2023/07/15 09:38:50;;;;;;;1146.93;999.90;;;;;;;31.84;39.00;96069.69;2080396;28;20431;-61
2023/07/15 09:39:59;;;;;;;1100.37;999.27;;;;;;;32.19;38.47;96061.19;2080855;28;20418;-61
2023/07/15 09:41:01;;;;;;;1148.63;999.90;;;;;;;32.34;38.35;96058.13;2079472;28;20459;-61
2023/07/15 09:42:07;;;;;;;1033.30;943.00;;;;;;;32.41;38.21;96064.31;2080684;28;20437;-61
2023/07/15 09:43:08;;;;;;;1011.47;905.87;;;;;;;32.29;37.98;96056.09;2080100;28;20530;-60
2023/07/15 09:44:11;;;;;;;1106.93;979.90;;;;;;;32.08;38.46;96059.97;2080876;28;20463;-61
2023/07/15 09:45:30;;;;;;;1089.30;976.87;;;;;;;31.84;38.77;96067.00;2080733;28;20833;-61
2023/07/15 09:46:32;;;;;;;1084.80;974.20;;;;;;;31.73;39.00;96063.94;2079024;28;20565;-61
2023/07/15 09:47:35;;;;;;;999.67;874.30;;;;;;;31.71;38.93;96066.00;2080835;28;20426;-61
2023/07/15 09:48:37;;;;;;;1244.33;999.90;;;;;;;31.58;38.02;96060.69;2079917;28;20434;-62
2023/07/15 09:49:38;;;;;;;1449.27;999.90;;;;;;;31.38;37.78;96056.19;2080540;28;20445;-61
2023/07/15 09:50:41;;;;;;;1236.70;999.90;;;;;;;31.37;38.28;96065.31;2080215;28;20982;-60
2023/07/15 09:51:43;;;;;;;1257.10;999.90;;;;;;;31.34;37.50;96057.66;2080798;28;20444;-60
2023/07/15 09:52:44;;;;;;;1224.33;999.90;;;;;;;31.35;37.53;96053.09;2080826;28;20572;-60
2023/07/15 09:53:51;;;;;;;1253.77;999.90;;;;;;;31.45;38.16;96055.34;2080897;28;20427;-60
2023/07/15 09:54:53;;;;;;;1301.97;999.90;;;;;;;31.45;38.05;96061.53;2080284;28;20469;-60
2023/07/15 09:55:55;;;;;;;1260.83;999.90;;;;;;;31.33;38.48;96052.50;2080188;28;20471;-60
2023/07/15 09:57:03;;;;;;;1210.33;999.90;;;;;;;31.25;38.00;96050.88;2080724;28;20649;-61
2023/07/15 09:58:08;;;;;;;1294.73;999.90;;;;;;;31.41;38.45;96045.00;2080637;28;20510;-60
2023/07/15 09:59:17;;;;;;;1178.83;999.90;;;;;;;31.50;38.44;96042.03;2080709;28;20517;-60
2023/07/15 10:00:20;;;;;;;1244.57;999.90;;;;;;;31.57;37.80;96045.53;2080411;28;20430;-63
2023/07/15 10:01:47;;;;;;;1114.07;999.90;;;;;;;31.48;38.60;96049.50;2079853;28;21063;-63
2023/07/15 10:02:55;;;;;;;1110.10;997.27;;;;;;;31.68;38.69;96047.56;2080430;28;20913;-61
2023/07/15 10:04:29;;;;;;;1144.67;999.90;;;;;;;31.65;38.38;96047.19;2080138;28;20433;-61
2023/07/15 10:05:32;;;;;;;1197.17;999.90;;;;;;;31.64;38.05;96040.13;2076137;28;20995;-61
2023/07/15 10:06:34;;;;;;;1052.50;957.60;;;;;;;31.74;38.82;96041.31;2079907;28;20553;-61
2023/07/15 10:07:37;;;;;;;1124.03;999.90;;;;;;;31.79;38.75;96045.22;2080729;28;20437;-61
2023/07/15 10:08:39;;;;;;;1297.90;999.90;;;;;;;31.80;38.14;96047.69;2079726;28;21286;-61
2023/07/15 10:09:41;;;;;;;1217.97;999.90;;;;;;;31.84;37.83;96045.41;2080563;28;20465;-61
2023/07/15 10:10:42;;;;;;;1245.40;999.90;;;;;;;31.82;37.87;96042.06;2079909;28;20510;-60
2023/07/15 10:11:45;;;;;;;733.00;658.33;;;;;;;31.92;37.30;96050.53;2080592;28;20426;-61
2023/07/15 10:12:48;;;;;;;1199.27;999.90;;;;;;;32.28;37.29;96038.25;2080480;28;20426;-61
2023/07/15 10:13:50;;;;;;;888.37;796.17;;;;;;;32.36;37.28;96043.34;2079832;28;21134;-61
2023/07/15 10:14:52;;;;;;;1134.50;997.97;;;;;;;32.39;36.62;96048.34;2080763;28;20798;-60
2023/07/15 10:15:53;;;;;;;978.07;882.20;;;;;;;32.27;37.21;96051.97;2080081;28;20435;-61
2023/07/15 10:17:15;;;;;;;868.30;788.63;;;;;;;32.13;37.23;96051.22;2079966;28;20509;-61
2023/07/15 10:18:18;;;;;;;1087.13;982.10;;;;;;;32.18;37.47;96048.69;2080235;28;20426;-60
2023/07/15 10:19:39;;;;;;;775.93;706.03;;;;;;;31.79;37.23;96051.44;2079361;28;20484;-60
2023/07/15 10:21:05;;;;;;;867.60;783.80;;;;;;;31.85;37.45;96044.34;2078310;28;20447;-60
2023/07/15 10:22:07;;;;;;;640.20;580.47;;;;;;;32.02;37.58;96037.38;2079777;28;20425;-60
2023/07/15 10:23:10;;;;;;;705.17;641.90;;;;;;;32.16;37.55;96038.09;2079898;28;20426;-60
2023/07/15 10:24:16;;;;;;;697.53;634.37;;;;;;;32.13;37.52;96043.94;2079984;28;20430;-60
2023/07/15 10:25:18;;;;;;;974.53;884.20;;;;;;;32.28;36.61;96038.25;2080005;28;20470;-60
2023/07/15 10:26:20;;;;;;;1194.13;999.90;;;;;;;32.40;35.99;96044.59;2078712;28;20466;-60
2023/07/15 10:27:26;;;;;;;976.33;894.40;;;;;;;32.56;35.96;96042.38;2079499;28;20454;-60
2023/07/15 10:28:38;;;;;;;971.00;877.67;;;;;;;33.25;36.13;96036.84;2079945;28;20479;-60
2023/07/15 10:29:40;;;;;;;692.13;636.17;;;;;;;32.76;35.56;96044.91;2080077;28;20484;-60
2023/07/15 10:31:06;;;;;;;1052.43;958.80;;;;;;;32.68;36.11;96043.28;2079585;28;20846;-60
2023/07/15 10:32:13;;;;;;;720.33;662.07;;;;;;;32.51;36.56;96037.63;2080319;28;20906;-61
2023/07/15 10:33:23;;;;;;;1129.83;999.90;;;;;;;32.60;36.68;96040.03;2079159;28;20465;-62
2023/07/15 10:34:35;;;;;;;999.80;904.67;;;;;;;32.58;35.67;96040.25;2080408;28;20430;-63
2023/07/15 10:35:39;;;;;;;722.83;664.17;;;;;;;32.54;36.18;96042.59;2079260;28;20431;-61
2023/07/15 10:36:44;;;;;;;233.80;218.13;;;;;;;32.20;35.87;96033.09;2080508;28;20492;-61
2023/07/15 10:37:46;;;;;;;563.67;519.77;;;;;;;32.13;36.75;96045.81;2080407;28;20510;-61
2023/07/15 10:38:59;;;;;;;223.77;207.70;;;;;;;32.63;35.93;96031.47;2079533;28;20516;-62
2023/07/15 10:40:00;;;;;;;69.63;64.00;;;;;;;32.91;35.62;96038.28;2079600;28;21028;-62
2023/07/15 10:41:03;;;;;;;541.30;500.77;;;;;;;33.31;35.26;96030.56;2079444;28;21215;-62
2023/07/15 10:42:12;;;;;;;449.63;415.83;;;;;;;33.15;34.98;96033.84;2080109;28;20526;-61
2023/07/15 10:43:35;;;;;;;6.57;1.97;;;;;;;32.77;34.93;96038.41;2074901;28;20480;-62
2023/07/15 10:44:41;;;;;;;682.93;627.60;;;;;;;32.47;38.46;96035.56;2074453;28;20526;-62
2023/07/15 10:45:43;;;;;;;1180.30;999.90;;;;;;;32.13;40.70;96045.81;2079626;28;20427;-62
2023/07/15 10:46:52;;;;;;;1110.40;997.20;;;;;;;32.26;42.65;96045.72;2080183;28;20426;-62
2023/07/15 10:47:54;;;;;;;950.23;870.83;;;;;;;32.49;42.42;96044.28;2079522;28;20469;-61
2023/07/15 10:48:55;;;;;;;947.20;867.30;;;;;;;32.52;42.80;96043.88;2080328;28;20751;-62
2023/07/15 10:49:57;;;;;;;952.50;872.80;;;;;;;32.78;42.04;96050.88;2080168;28;20441;-62
2023/07/15 10:51:02;;;;;;;888.83;816.13;;;;;;;33.03;42.01;96050.81;2079237;28;21127;-61
2023/07/15 10:52:04;;;;;;;915.17;834.13;;;;;;;33.09;41.36;96042.88;2079577;28;20434;-62
2023/07/15 10:53:23;;;;;;;919.27;842.97;;;;;;;33.13;41.31;96044.06;2080234;28;20433;-62
2023/07/15 10:54:26;;;;;;;930.90;853.50;;;;;;;32.95;42.37;96059.25;2079323;28;20467;-62
2023/07/15 10:55:27;;;;;;;935.80;856.30;;;;;;;32.78;42.17;96064.41;2080304;28;20419;-62
2023/07/15 10:56:29;;;;;;;906.80;828.60;;;;;;;32.81;41.80;96073.94;2079390;28;20520;-62
2023/07/15 10:57:30;;;;;;;925.87;849.80;;;;;;;33.33;41.58;96071.75;2080132;28;20434;-62
2023/07/15 10:58:52;;;;;;;995.10;910.73;;;;;;;33.03;42.50;96072.47;2079510;28;20465;-61
2023/07/15 10:59:53;;;;;;;942.50;866.20;;;;;;;33.27;41.78;96075.31;2079589;28;20418;-62
2023/07/15 11:01:06;;;;;;;937.03;849.23;;;;;;;32.69;42.54;96071.94;2079266;28;20443;-61
2023/07/15 11:02:08;;;;;;;923.47;846.93;;;;;;;32.73;42.82;96075.03;2079388;28;20513;-61
2023/07/15 11:03:10;;;;;;;1142.30;999.90;;;;;;;33.04;42.49;96071.41;2080233;28;20427;-61
2023/07/15 11:04:12;;;;;;;1087.17;981.83;;;;;;;33.36;42.12;96071.28;2080244;28;20507;-61
2023/07/15 11:05:13;;;;;;;906.50;718.30;;;;;;;33.67;42.20;96068.59;2080299;28;20430;-61
2023/07/15 11:06:15;;;;;;;1048.07;948.03;;;;;;;33.79;41.71;96065.91;2075778;28;20463;-61
2023/07/15 11:07:17;;;;;;;924.73;848.30;;;;;;;33.58;40.59;96067.25;2075406;28;20923;-61
2023/07/15 11:08:19;;;;;;;977.83;894.23;;;;;;;33.59;40.68;96064.31;2080194;28;20483;-61
2023/07/15 11:09:21;;;;;;;927.70;840.70;;;;;;;33.55;40.83;96068.56;2079981;28;20441;-61
2023/07/15 11:10:33;;;;;;;942.03;861.50;;;;;;;33.33;41.48;96060.91;2080035;28;20423;-61
2023/07/15 11:11:38;;;;;;;995.20;902.67;;;;;;;33.76;40.65;96060.97;2079730;28;20533;-61
2023/07/15 11:12:39;;;;;;;1192.20;999.90;;;;;;;33.50;40.50;96058.41;2080086;28;20423;-61
2023/07/15 11:13:41;;;;;;;1045.20;945.50;;;;;;;33.95;40.22;96046.34;2079186;28;21166;-61
2023/07/15 11:14:44;;;;;;;1275.07;999.90;;;;;;;34.05;39.59;96044.97;2080148;28;20510;-61
2023/07/15 11:15:46;;;;;;;1121.30;999.27;;;;;;;34.13;40.07;96041.91;2079260;28;20434;-61
2023/07/15 11:16:58;;;;;;;1100.97;993.47;;;;;;;34.33;39.73;96034.34;2079672;28;20431;-61
2023/07/15 11:18:00;;;;;;;1186.77;999.90;;;;;;;34.48;39.90;96030.31;2079247;28;20433;-61
2023/07/15 11:19:01;;;;;;;1093.40;996.90;;;;;;;34.02;39.57;96025.41;2080210;28;20514;-61
2023/07/15 11:20:06;;;;;;;1075.57;980.97;;;;;;;34.38;39.07;96022.78;2079370;28;20457;-61
2023/07/15 11:21:07;;;;;;;1083.17;986.47;;;;;;;34.65;38.84;96028.56;2079557;28;20466;-61
2023/07/15 11:22:10;;;;;;;1083.30;990.07;;;;;;;34.37;39.26;96040.09;2080021;28;20473;-61
2023/07/15 11:23:13;;;;;;;1108.73;999.90;;;;;;;34.03;39.80;96037.09;2078830;28;20487;-61
2023/07/15 11:24:20;;;;;;;1069.50;974.63;;;;;;;33.84;38.75;96033.63;2080277;28;20466;-62
2023/07/15 11:25:22;;;;;;;1157.13;999.90;;;;;;;33.65;39.95;96051.75;2079685;28;20735;-61
2023/07/15 11:26:25;;;;;;;1038.23;947.17;;;;;;;33.83;39.48;96037.38;2079662;28;20491;-61
2023/07/15 11:27:27;;;;;;;1036.13;942.47;;;;;;;33.71;39.11;96026.47;2079379;28;21098;-62
2023/07/15 11:28:28;;;;;;;1087.60;985.87;;;;;;;34.11;39.02;96044.03;2080073;28;20803;-61
2023/07/15 11:29:30;;;;;;;1143.50;999.90;;;;;;;34.45;38.55;96037.03;2080290;28;20437;-61
2023/07/15 11:30:42;;;;;;;912.80;833.37;;;;;;;34.24;38.28;96034.88;2080128;28;21108;-61
2023/07/15 11:31:49;;;;;;;853.23;777.13;;;;;;;33.74;39.12;96034.16;2078974;28;20565;-61
2023/07/15 11:32:54;;;;;;;985.20;895.10;;;;;;;33.40;39.35;96038.38;2080032;28;20675;-61
2023/07/15 11:33:57;;;;;;;1041.27;938.40;;;;;;;33.04;39.71;96041.66;2080015;28;20921;-62
2023/07/15 11:35:10;;;;;;;971.07;881.53;;;;;;;32.92;40.07;96043.47;2080058;28;20434;-61
2023/07/15 11:36:12;;;;;;;929.70;842.97;;;;;;;32.38;41.31;96043.97;2078876;28;20458;-61
2023/07/15 11:37:14;;;;;;;1196.00;999.90;;;;;;;32.50;40.79;96040.53;2079936;28;20426;-61
2023/07/15 11:38:27;;;;;;;1024.97;930.13;;;;;;;33.06;40.38;96033.31;2078236;28;20430;-61
2023/07/15 11:39:28;;;;;;;1076.33;973.87;;;;;;;33.59;39.19;96034.56;2080019;28;20466;-61
2023/07/15 11:40:30;;;;;;;1092.67;985.77;;;;;;;33.74;39.38;96033.31;2080131;28;20454;-61
2023/07/15 11:41:36;;;;;;;1154.07;999.90;;;;;;;33.79;39.31;96030.72;2078111;28;20533;-61
2023/07/15 11:42:38;;;;;;;1189.07;999.90;;;;;;;34.15;39.08;96027.06;2080068;28;20433;-61
2023/07/15 11:43:39;;;;;;;1076.10;970.97;;;;;;;34.30;38.63;96021.22;2079734;28;20842;-61
2023/07/15 11:44:41;;;;;;;1086.57;987.30;;;;;;;34.41;38.27;96022.31;2080345;28;21019;-61
2023/07/15 11:45:42;;;;;;;1146.83;999.90;;;;;;;34.69;38.15;96012.66;2080982;28;20422;-61
2023/07/15 11:46:45;;;;;;;823.13;751.97;;;;;;;34.22;38.23;96009.91;2080067;28;20430;-62
2023/07/15 11:47:47;;;;;;;960.33;870.17;;;;;;;34.52;37.89;96012.53;2079429;28;20466;-61
2023/07/15 11:48:49;;;;;;;1124.87;999.90;;;;;;;34.49;38.11;96013.81;2080032;28;20426;-62
2023/07/15 11:49:50;;;;;;;922.80;833.40;;;;;;;34.66;38.11;96019.38;2079580;28;20512;-61
2023/07/15 11:50:56;;;;;;;1200.03;999.90;;;;;;;34.43;38.50;96016.66;2079707;28;20460;-61
2023/07/15 11:51:58;;;;;;;880.87;803.80;;;;;;;34.55;38.43;96012.06;2079476;28;20945;-61
2023/07/15 11:52:59;;;;;;;932.57;848.30;;;;;;;34.41;38.60;96006.06;2079692;28;20427;-62
2023/07/15 11:54:02;;;;;;;1113.60;993.40;;;;;;;34.51;38.24;96000.03;2079807;28;20971;-62
2023/07/15 11:55:04;;;;;;;1271.43;999.90;;;;;;;34.39;38.09;96004.66;2078625;28;20426;-61
2023/07/15 11:56:06;;;;;;;1178.53;999.90;;;;;;;34.85;37.47;95997.56;2079043;28;20490;-61
2023/07/15 11:57:07;;;;;;;1090.93;979.97;;;;;;;35.04;37.01;95989.28;2079887;28;20434;-61
2023/07/15 11:58:09;;;;;;;796.17;729.07;;;;;;;34.85;37.10;95989.44;2079766;28;20453;-61
2023/07/15 11:59:12;;;;;;;1129.93;999.23;;;;;;;34.72;37.00;95987.78;2079984;28;20764;-61
2023/07/15 12:00:26;;;;;;;1092.20;983.43;;;;;;;34.86;37.54;95982.13;2079174;28;20422;-61
2023/07/15 12:01:46;;;;;;;907.03;827.73;;;;;;;34.84;37.04;95971.47;2079454;28;20545;-61
2023/07/15 12:02:47;;;;;;;967.07;883.17;;;;;;;34.41;37.52;95976.28;2079198;28;20423;-62
2023/07/15 12:03:49;;;;;;;959.47;870.67;;;;;;;34.41;38.06;95976.28;2079697;28;20433;-62
2023/07/15 12:04:51;;;;;;;1247.07;999.90;;;;;;;34.80;37.91;95973.03;2079223;28;21207;-62
2023/07/15 12:05:52;;;;;;;1268.43;999.90;;;;;;;35.48;36.84;95965.19;2078585;28;20509;-61
2023/07/15 12:06:54;;;;;;;751.70;689.83;;;;;;;36.03;36.24;95962.88;2079729;28;21073;-61
2023/07/15 12:07:55;;;;;;;959.77;872.83;;;;;;;35.56;36.26;95959.34;2078593;28;20553;-61
2023/07/15 12:09:10;;;;;;;828.33;758.80;;;;;;;35.50;36.73;95960.34;2079933;28;21190;-61
2023/07/15 12:10:13;;;;;;;811.30;745.07;;;;;;;35.61;36.96;95956.72;2079020;28;20430;-61